Hindu — WDG6190 — position and weather

sailwx.info

Track history (hours):
 
Tides and Currents Weather Stations Pressure Air Temp Water Temp Dewpoint Dewpoint Depression Visibility Wind Speed Wind Dir Waves Ship Positions

Hindu

Owner: Hindu Charters LLC, Key West, FL. More information available from US FCC via Universal Licensing System and Coast Guard Vessel Documentation Center.

Last reported at 2014-Oct-31 07:33 UTC. Time now 2014-Dec-21 06:57 UTC.
Position N 25°60' W 080°05'.
Warning: this ship's position is 50 days out of date.

Length 24 m.

Type: Sailing vessel. MMSI: 367554370.

Date/timePositionNaut miles runAvg speedWind from/ knotsBaromVisibWave heightAir tempDewpointWater temp
2014-Oct-31 07:33N 25°60' W 080°05'7 7.0
2014-Oct-31 06:32N 26°07' W 080°04'7 7.3
2014-Oct-31 05:31N 26°14' W 080°03'7 7.3
2014-Oct-31 04:30N 26°22' W 080°03'  
2014-Oct-25 15:07N 34°38' W 076°41'4 6.9
2014-Oct-25 14:29N 34°43' W 076°41'0 0.0
2014-Oct-23 16:32N 34°43' W 076°40'0 0.0
2014-Oct-23 15:32N 34°43' W 076°40'0 0.0
2014-Oct-23 14:31N 34°43' W 076°40'1 0.8
2014-Oct-23 13:33N 34°42' W 076°41'  
Track history (hours):
 
Tides and Currents Weather Stations Pressure Air Temp Water Temp Dewpoint Dewpoint Depression Visibility Wind Speed Wind Dir Waves Ship Positions

Hindu

Owner: Hindu Charters LLC, Key West, FL. More information available from US FCC via Universal Licensing System and Coast Guard Vessel Documentation Center.

Last reported at 2014-Oct-31 07:33 UTC. Time now 2014-Dec-21 06:57 UTC.
Position N 25°60' W 080°05'.
Warning: this ship's position is 50 days out of date.

Length 24 m.

Type: Sailing vessel. MMSI: 367554370.

Date/timePositionNaut miles runAvg speedWind from/ knotsBaromVisibWave heightAir tempDewpointWater temp
2014-Oct-31 07:33N 25°60' W 080°05'7 7.0
2014-Oct-31 06:32N 26°07' W 080°04'7 7.3
2014-Oct-31 05:31N 26°14' W 080°03'7 7.3
2014-Oct-31 04:30N 26°22' W 080°03'  
2014-Oct-25 15:07N 34°38' W 076°41'4 6.9
2014-Oct-25 14:29N 34°43' W 076°41'0 0.0
2014-Oct-23 16:32N 34°43' W 076°40'0 0.0
2014-Oct-23 15:32N 34°43' W 076°40'0 0.0
2014-Oct-23 14:31N 34°43' W 076°40'1 0.8
2014-Oct-23 13:33N 34°42' W 076°41'  

Dump ship's entire track history